createdAt,value
2022-12-28T00:19:29.544Z,12.80
2022-12-28T00:40:25.211Z,9.80
2022-12-28T01:10:12.093Z,13.77
2022-12-28T01:30:58.322Z,15.37
2022-12-28T01:56:01.746Z,16.23
2022-12-28T02:16:33.096Z,10.50
2022-12-28T03:32:07.622Z,14.13
2022-12-28T03:52:44.293Z,20.10
2022-12-28T04:12:36.327Z,16.47
2022-12-28T05:19:04.086Z,17.97
2022-12-28T05:43:51.565Z,21.00
2022-12-28T06:14:12.422Z,21.73
2022-12-28T06:50:23.380Z,26.17
2022-12-28T07:10:41.242Z,27.43
2022-12-28T07:56:09.501Z,22.83
2022-12-28T10:18:15.680Z,11.77
2022-12-28T10:22:35.895Z,13.00
2022-12-28T11:23:38.160Z,13.20
2022-12-28T12:19:19.951Z,14.23
2022-12-28T12:49:54.795Z,12.50
2022-12-28T13:35:24.845Z,12.70
2022-12-28T14:01:18.733Z,12.50
2022-12-28T14:21:07.445Z,10.90
2022-12-28T14:51:44.397Z,9.33
2022-12-28T15:26:47.116Z,11.47
2022-12-28T15:52:39.781Z,13.33
2022-12-28T16:32:59.248Z,12.77
2022-12-28T16:53:28.683Z,12.80
2022-12-28T17:43:42.576Z,14.17
2022-12-28T18:09:35.830Z,13.83
2022-12-28T18:45:08.238Z,13.70
2022-12-28T19:35:25.778Z,8.83
2022-12-28T19:56:14.978Z,11.43
2022-12-28T20:16:32.232Z,9.73
2022-12-28T20:51:57.211Z,11.27
2022-12-28T21:22:23.667Z,10.67
2022-12-28T21:47:27.639Z,12.07
2022-12-28T22:07:46.447Z,10.83
2022-12-28T22:48:38.905Z,10.10
2022-12-28T23:38:58.061Z,11.13
